createdAt,value
2019-04-28T00:00:18.582Z,9.66
2019-04-28T00:02:50.793Z,9.69
2019-04-28T00:05:23.204Z,9.63
2019-04-28T00:07:54.242Z,9.54
2019-04-28T00:10:25.428Z,9.53
2019-04-28T00:12:56.375Z,9.42
2019-04-28T00:15:27.401Z,9.55
2019-04-28T00:17:59.497Z,9.58
2019-04-28T00:20:52.211Z,9.69
2019-04-28T00:23:32.673Z,9.74
2019-04-28T00:26:14.667Z,10.07
2019-04-28T00:28:45.603Z,10.16
2019-04-28T00:31:17.879Z,9.87
2019-04-28T00:33:51.134Z,9.50
2019-04-28T00:36:21.937Z,9.37
2019-04-28T00:38:54.626Z,9.42
2019-04-28T00:41:26.393Z,9.58
2019-04-28T00:43:57.684Z,9.53
2019-04-28T00:46:33.109Z,9.65
2019-04-28T00:49:04.185Z,9.78
2019-04-28T00:51:35.210Z,9.63
2019-04-28T00:54:06.278Z,9.58
2019-04-28T00:56:37.314Z,9.58
2019-04-28T00:59:08.599Z,9.64
2019-04-28T01:01:46.011Z,9.54
2019-04-28T01:04:17.362Z,9.38
2019-04-28T01:06:48.688Z,9.54
2019-04-28T01:09:21.809Z,9.53
2019-04-28T01:11:53.372Z,9.44
2019-04-28T01:14:25.809Z,9.29
2019-04-28T01:17:03.546Z,9.44
2019-04-28T01:19:37.118Z,9.36
2019-04-28T01:22:12.413Z,9.43
2019-04-28T01:24:43.466Z,9.39
2019-04-28T01:27:36.479Z,9.43
2019-04-28T01:30:12.424Z,9.37
2019-04-28T01:32:49.840Z,9.54
2019-04-28T01:35:21.877Z,9.54
2019-04-28T01:37:53.310Z,9.50
2019-04-28T01:40:24.291Z,9.45
2019-04-28T01:42:55.349Z,9.55
2019-04-28T01:45:26.332Z,9.57
2019-04-28T01:48:00.481Z,9.59
2019-04-28T01:50:30.913Z,9.35
2019-04-28T01:53:02.475Z,9.28
2019-04-28T01:55:34.451Z,9.39
2019-04-28T01:58:05.419Z,9.47
2019-04-28T02:00:36.461Z,9.53
2019-04-28T02:03:08.039Z,9.26
2019-04-28T02:05:40.517Z,9.20
2019-04-28T02:08:11.732Z,9.36
2019-04-28T02:10:43.164Z,9.30
2019-04-28T02:13:14.273Z,9.19
2019-04-28T02:15:45.960Z,9.21
2019-04-28T02:18:17.317Z,9.28
2019-04-28T02:20:53.446Z,9.19
2019-04-28T02:23:29.849Z,9.10
2019-04-28T02:26:00.975Z,9.12
2019-04-28T02:28:32.607Z,9.13
2019-04-28T02:31:03.644Z,9.11
2019-04-28T02:33:34.600Z,9.22
2019-04-28T02:36:08.691Z,9.36
2019-04-28T02:38:41.374Z,9.28
2019-04-28T02:41:12.025Z,9.36
2019-04-28T02:43:43.027Z,9.15
2019-04-28T02:46:14.510Z,9.17
2019-04-28T02:48:45.618Z,9.19
2019-04-28T02:51:23.731Z,9.27
2019-04-28T02:53:55.217Z,9.27
2019-04-28T02:56:27.268Z,9.09
2019-04-28T02:59:00.840Z,9.13
2019-04-28T03:01:31.243Z,8.98
2019-04-28T03:04:02.446Z,9.04
2019-04-28T03:06:33.604Z,9.14
2019-04-28T03:09:05.870Z,9.11
2019-04-28T03:11:36.868Z,9.13
2019-04-28T03:14:11.026Z,9.13
2019-04-28T03:16:41.235Z,9.07
2019-04-28T03:19:12.335Z,9.07
2019-04-28T03:21:43.383Z,9.06
2019-04-28T03:24:15.486Z,9.47
2019-04-28T03:26:56.731Z,9.48
2019-04-28T03:29:34.561Z,9.34
2019-04-28T03:32:37.406Z,9.25
2019-04-28T03:34:55.761Z,9.21
2019-04-28T03:37:26.779Z,9.10
2019-04-28T03:40:00.545Z,8.94
2019-04-28T03:42:31.496Z,8.96
2019-04-28T03:45:04.642Z,8.99
2019-04-28T03:47:35.650Z,8.98
2019-04-28T03:50:07.205Z,8.79
2019-04-28T03:52:41.442Z,8.82
2019-04-28T03:55:12.125Z,8.77
2019-04-28T03:57:43.168Z,8.91
2019-04-28T04:00:15.436Z,8.77
2019-04-28T04:02:46.515Z,8.63
2019-04-28T04:05:17.528Z,8.99
2019-04-28T04:07:50.643Z,8.80
2019-04-28T04:10:52.485Z,8.80
2019-04-28T04:13:33.044Z,8.67
2019-04-28T04:16:22.193Z,8.81
2019-04-28T04:18:54.707Z,8.87
2019-04-28T04:21:25.675Z,8.85
2019-04-28T04:23:56.639Z,8.89
2019-04-28T04:26:27.656Z,8.99
2019-04-28T04:29:00.979Z,9.11
2019-04-28T04:31:32.141Z,9.20
2019-04-28T04:34:04.258Z,9.00
2019-04-28T04:36:35.327Z,8.90
2019-04-28T04:39:10.632Z,8.82
2019-04-28T04:41:43.652Z,9.11
2019-04-28T04:44:14.104Z,9.14
2019-04-28T04:46:45.126Z,9.00
2019-04-28T04:49:16.218Z,8.85
2019-04-28T04:51:50.671Z,9.06
2019-04-28T04:54:20.762Z,8.65
2019-04-28T04:56:51.975Z,8.70
2019-04-28T04:59:22.962Z,8.80
2019-04-28T05:02:29.240Z,8.85
2019-04-28T05:05:00.454Z,8.67
2019-04-28T05:07:31.618Z,8.92
2019-04-28T05:10:02.580Z,8.90
2019-04-28T05:12:33.592Z,8.90
2019-04-28T05:15:04.895Z,8.80
2019-04-28T05:17:35.937Z,8.75
2019-04-28T05:20:09.551Z,8.95
2019-04-28T05:22:50.580Z,8.93
2019-04-28T05:25:30.971Z,8.97
2019-04-28T05:28:02.905Z,8.96
2019-04-28T05:30:34.962Z,9.01
2019-04-28T05:33:06.458Z,9.28
2019-04-28T05:35:37.511Z,9.30
2019-04-28T05:38:09.926Z,9.03
2019-04-28T05:40:41.081Z,9.08
2019-04-28T05:43:12.133Z,9.08
2019-04-28T05:45:43.135Z,9.15
2019-04-28T05:48:14.095Z,9.53
2019-04-28T05:51:01.851Z,9.18
2019-04-28T05:53:47.214Z,9.32
2019-04-28T05:56:36.464Z,9.01
2019-04-28T05:59:15.239Z,8.95
2019-04-28T06:02:02.191Z,9.01
2019-04-28T06:04:33.157Z,9.00
2019-04-28T06:07:11.909Z,9.07
2019-04-28T06:09:46.567Z,9.43
2019-04-28T06:12:20.020Z,9.34
2019-04-28T06:14:51.054Z,9.31
2019-04-28T06:17:22.360Z,9.19
2019-04-28T06:19:53.567Z,9.44
2019-04-28T06:22:25.229Z,9.43
2019-04-28T06:24:57.479Z,9.37
2019-04-28T06:27:28.661Z,9.34
2019-04-28T06:29:59.727Z,9.60
2019-04-28T06:32:30.670Z,9.64
2019-04-28T06:35:01.907Z,9.37
2019-04-28T06:37:33.159Z,9.35
2019-04-28T06:40:04.249Z,9.53
2019-04-28T06:42:35.319Z,9.66
2019-04-28T06:45:06.439Z,9.88
2019-04-28T06:47:38.197Z,9.97
2019-04-28T06:50:09.248Z,9.84
2019-04-28T06:52:40.506Z,10.14
2019-04-28T06:55:11.982Z,10.23
2019-04-28T06:57:43.233Z,10.03
2019-04-28T07:00:14.598Z,9.95
2019-04-28T07:02:45.712Z,10.29
2019-04-28T07:05:16.729Z,10.35
2019-04-28T07:07:47.812Z,10.34
2019-04-28T07:10:19.173Z,10.12
2019-04-28T07:12:50.248Z,10.58
2019-04-28T07:15:21.212Z,10.39
2019-04-28T07:17:52.318Z,10.41
2019-04-28T07:20:39.026Z,10.41
2019-04-28T07:23:10.388Z,10.66
2019-04-28T07:25:42.753Z,10.77
2019-04-28T07:28:14.802Z,10.73
2019-04-28T07:30:46.138Z,10.60
2019-04-28T07:33:17.222Z,10.64
2019-04-28T07:35:48.221Z,10.75
2019-04-28T07:38:19.786Z,10.93
2019-04-28T07:40:50.878Z,10.71
2019-04-28T07:43:21.823Z,10.78
2019-04-28T07:45:52.804Z,10.84
2019-04-28T07:48:24.106Z,11.15
2019-04-28T07:50:55.344Z,10.90
2019-04-28T07:53:32.102Z,11.10
2019-04-28T07:56:03.401Z,10.89
2019-04-28T07:58:34.898Z,10.93
2019-04-28T08:01:07.902Z,10.76
2019-04-28T08:03:48.804Z,10.71
2019-04-28T08:06:12.321Z,10.73
2019-04-28T08:08:43.285Z,10.49
2019-04-28T08:11:14.353Z,10.76
2019-04-28T08:13:45.900Z,10.53
2019-04-28T08:16:16.778Z,10.41
2019-04-28T08:18:47.722Z,10.46
2019-04-28T08:21:18.770Z,10.60
2019-04-28T08:23:50.604Z,10.57
2019-04-28T08:26:21.700Z,10.57
2019-04-28T08:28:54.245Z,10.53
2019-04-28T08:31:29.407Z,10.47
2019-04-28T08:34:03.487Z,10.85
2019-04-28T08:36:34.524Z,10.76
2019-04-28T08:39:07.110Z,10.77
2019-04-28T08:41:38.315Z,10.94
2019-04-28T08:44:09.710Z,11.38
2019-04-28T08:46:41.015Z,11.28
2019-04-28T08:49:12.304Z,11.43
2019-04-28T08:51:44.444Z,11.58
2019-04-28T08:54:15.927Z,11.52
2019-04-28T08:56:47.684Z,11.70
2019-04-28T08:59:18.656Z,11.47
2019-04-28T09:01:49.695Z,11.44
2019-04-28T09:04:20.681Z,11.72
2019-04-28T09:06:52.152Z,11.74
2019-04-28T09:09:23.611Z,12.77
2019-04-28T09:11:55.168Z,12.59
2019-04-28T09:14:26.531Z,13.37
2019-04-28T09:16:57.500Z,12.65
2019-04-28T09:19:29.311Z,12.26
2019-04-28T09:22:00.308Z,12.06
2019-04-28T09:24:31.645Z,11.86
2019-04-28T09:27:02.564Z,11.80
2019-04-28T09:29:33.634Z,11.77
2019-04-28T09:32:04.776Z,12.26
2019-04-28T09:34:35.821Z,11.85
2019-04-28T09:37:07.199Z,12.05
2019-04-28T09:40:01.114Z,12.92
2019-04-28T09:42:51.390Z,13.18
2019-04-28T09:45:25.061Z,12.76
2019-04-28T09:47:56.127Z,12.18
2019-04-28T09:50:27.221Z,12.08
2019-04-28T09:52:58.193Z,12.25
2019-04-28T09:55:29.181Z,11.91
2019-04-28T09:58:00.176Z,11.76
2019-04-28T10:00:31.129Z,12.22
2019-04-28T10:03:02.235Z,12.39
2019-04-28T10:05:33.259Z,12.72
2019-04-28T10:08:04.671Z,12.30
2019-04-28T10:10:35.781Z,12.44
2019-04-28T10:13:07.086Z,12.22
2019-04-28T10:15:38.512Z,12.71
2019-04-28T10:18:09.847Z,12.70
2019-04-28T10:20:42.154Z,12.54
2019-04-28T10:23:13.422Z,12.29
2019-04-28T10:25:44.918Z,12.17
2019-04-28T10:28:16.751Z,12.63
2019-04-28T10:30:48.211Z,14.30
2019-04-28T10:33:19.242Z,14.88
2019-04-28T10:35:50.555Z,13.84
2019-04-28T10:38:21.506Z,14.72
2019-04-28T10:41:03.523Z,14.90
2019-04-28T10:43:34.553Z,14.63
2019-04-28T10:46:05.817Z,13.68
2019-04-28T10:48:37.183Z,14.32
2019-04-28T10:51:08.275Z,14.00
2019-04-28T10:53:39.573Z,14.01
2019-04-28T10:56:10.611Z,13.72
2019-04-28T10:58:44.045Z,14.29
2019-04-28T11:01:15.842Z,14.58
2019-04-28T11:03:49.895Z,14.49
2019-04-28T11:06:21.216Z,14.19
2019-04-28T11:09:11.279Z,14.40
2019-04-28T11:11:42.585Z,15.70
2019-04-28T11:14:14.314Z,14.89
2019-04-28T11:16:45.458Z,14.89
2019-04-28T11:19:16.629Z,14.47
2019-04-28T11:21:47.762Z,13.92
2019-04-28T11:24:18.769Z,13.34
2019-04-28T11:26:49.841Z,13.55
2019-04-28T11:29:21.228Z,13.42
2019-04-28T11:31:53.515Z,13.35
2019-04-28T11:34:31.464Z,12.83
2019-04-28T11:37:02.561Z,12.82
2019-04-28T11:39:36.388Z,12.84
2019-04-28T11:42:07.609Z,12.66
2019-04-28T11:44:38.652Z,12.79
2019-04-28T11:47:12.491Z,12.71
2019-04-28T11:49:45.037Z,12.55
2019-04-28T11:52:16.441Z,12.46
2019-04-28T11:54:47.782Z,12.36
2019-04-28T11:57:19.385Z,12.28
2019-04-28T11:59:50.805Z,12.43
2019-04-28T12:02:21.789Z,12.30
2019-04-28T12:04:54.719Z,11.97
2019-04-28T12:07:26.892Z,11.89
2019-04-28T12:10:05.905Z,11.84
2019-04-28T12:12:44.890Z,12.13
2019-04-28T12:15:43.554Z,11.91
2019-04-28T12:18:33.559Z,11.78
2019-04-28T12:21:04.866Z,11.68
2019-04-28T12:23:35.864Z,11.46
2019-04-28T12:26:07.900Z,11.61
2019-04-28T12:28:39.203Z,11.55
2019-04-28T12:31:10.260Z,11.50
2019-04-28T12:33:42.510Z,11.16
2019-04-28T12:36:13.763Z,11.49
2019-04-28T12:38:44.699Z,11.48
2019-04-28T12:41:16.056Z,11.45
2019-04-28T12:43:47.380Z,11.73
2019-04-28T12:46:18.733Z,11.75
2019-04-28T12:48:53.931Z,11.73
2019-04-28T12:51:25.100Z,11.93
2019-04-28T12:54:00.299Z,11.84
2019-04-28T12:56:31.825Z,12.10
2019-04-28T12:59:10.180Z,12.19
2019-04-28T13:01:50.801Z,12.37
2019-04-28T13:04:35.468Z,12.45
2019-04-28T13:07:08.456Z,12.83
2019-04-28T13:09:39.492Z,12.69
2019-04-28T13:12:10.562Z,12.86
2019-04-28T13:14:41.494Z,12.69
2019-04-28T13:17:12.567Z,12.42
2019-04-28T13:19:43.911Z,12.50
2019-04-28T13:22:14.964Z,12.48
2019-04-28T13:24:46.914Z,12.68
2019-04-28T13:27:17.963Z,12.83
2019-04-28T13:29:49.104Z,12.69
2019-04-28T13:32:20.643Z,13.02
2019-04-28T13:34:52.104Z,13.12
2019-04-28T13:37:23.678Z,12.92
2019-04-28T13:39:58.867Z,12.81
2019-04-28T13:42:29.871Z,12.90
2019-04-28T13:45:05.812Z,13.05
2019-04-28T13:47:37.607Z,12.97
2019-04-28T13:50:17.476Z,13.15
2019-04-28T13:52:49.486Z,13.14
2019-04-28T13:55:38.293Z,12.94
2019-04-28T13:58:09.365Z,13.11
2019-04-28T14:01:01.861Z,12.86
2019-04-28T14:04:04.251Z,13.06
2019-04-28T14:06:39.127Z,13.08
2019-04-28T14:09:16.293Z,13.61
2019-04-28T14:11:47.451Z,13.57
2019-04-28T14:14:18.772Z,13.75
2019-04-28T14:16:50.146Z,13.63
2019-04-28T14:19:21.149Z,13.48
2019-04-28T14:21:52.313Z,13.88
2019-04-28T14:24:23.414Z,13.79
2019-04-28T14:26:54.930Z,14.20
2019-04-28T14:29:27.053Z,14.34
2019-04-28T14:31:58.281Z,14.40
2019-04-28T14:34:29.767Z,14.63
2019-04-28T14:37:01.101Z,15.21
2019-04-28T14:39:32.337Z,14.58
2019-04-28T14:42:03.918Z,14.29
2019-04-28T14:44:35.265Z,14.51
2019-04-28T14:47:07.116Z,14.48
2019-04-28T14:49:38.180Z,14.29
2019-04-28T14:52:09.924Z,14.46
2019-04-28T14:54:41.719Z,14.87
2019-04-28T14:57:12.862Z,15.55
2019-04-28T14:59:44.460Z,16.02
2019-04-28T15:02:25.308Z,15.29
2019-04-28T15:05:30.711Z,15.15
2019-04-28T15:08:16.028Z,14.98
2019-04-28T15:10:59.445Z,15.44
2019-04-28T15:13:30.538Z,15.37
2019-04-28T15:16:01.990Z,15.19
2019-04-28T15:18:33.438Z,15.42
2019-04-28T15:21:04.531Z,15.41
2019-04-28T15:23:36.048Z,15.33
2019-04-28T15:26:07.814Z,15.56
2019-04-28T15:28:39.117Z,15.39
2019-04-28T15:31:10.074Z,15.06
2019-04-28T15:33:41.367Z,15.18
2019-04-28T15:36:13.111Z,15.10
2019-04-28T15:38:44.349Z,14.31
2019-04-28T15:41:21.776Z,14.40
2019-04-28T15:43:48.819Z,14.75
2019-04-28T15:46:20.648Z,15.06
2019-04-28T15:48:51.916Z,14.98
2019-04-28T15:51:23.274Z,15.19
2019-04-28T15:53:54.259Z,15.46
2019-04-28T15:56:40.122Z,15.52
2019-04-28T15:59:11.615Z,15.78
2019-04-28T16:01:42.800Z,15.40
2019-04-28T16:04:13.761Z,15.18
2019-04-28T16:06:44.947Z,15.22
2019-04-28T16:09:16.408Z,15.08
2019-04-28T16:11:47.494Z,14.95
2019-04-28T16:14:18.581Z,14.68
2019-04-28T16:16:50.765Z,15.01
2019-04-28T16:19:22.354Z,15.19
2019-04-28T16:21:53.727Z,15.26
2019-04-28T16:24:24.832Z,14.98
2019-04-28T16:26:55.920Z,15.34
2019-04-28T16:29:26.868Z,14.99
2019-04-28T16:31:58.577Z,14.89
2019-04-28T16:34:29.589Z,14.91
2019-04-28T16:37:01.030Z,14.88
2019-04-28T16:39:32.268Z,15.01
2019-04-28T16:42:09.665Z,14.74
2019-04-28T16:44:45.851Z,14.69
2019-04-28T16:47:17.595Z,14.77
2019-04-28T16:49:48.562Z,14.73
2019-04-28T16:52:22.658Z,14.62
2019-04-28T16:55:12.694Z,14.73
2019-04-28T16:57:51.406Z,14.69
2019-04-28T17:00:48.093Z,14.93
2019-04-28T17:03:19.344Z,14.70
2019-04-28T17:05:50.993Z,14.75
2019-04-28T17:08:57.854Z,14.72
2019-04-28T17:11:28.927Z,14.41
2019-04-28T17:14:01.387Z,14.27
2019-04-28T17:16:32.752Z,14.03
2019-04-28T17:19:05.775Z,14.12
2019-04-28T17:21:37.275Z,14.22
2019-04-28T17:24:08.261Z,14.17
2019-04-28T17:26:39.403Z,14.32
2019-04-28T17:29:10.579Z,14.09
2019-04-28T17:31:41.755Z,14.21
2019-04-28T17:34:13.929Z,14.09
2019-04-28T17:36:45.599Z,14.00
2019-04-28T17:39:22.187Z,13.91
2019-04-28T17:41:53.637Z,13.60
2019-04-28T17:44:26.161Z,13.66
2019-04-28T17:46:57.190Z,13.81
2019-04-28T17:49:33.563Z,13.72
2019-04-28T17:52:06.306Z,13.75
2019-04-28T17:54:39.490Z,13.67
2019-04-28T17:57:10.754Z,13.70
2019-04-28T17:59:42.379Z,13.57
2019-04-28T18:02:32.473Z,13.46
2019-04-28T18:05:31.848Z,13.61
2019-04-28T18:08:04.769Z,13.42
2019-04-28T18:10:37.295Z,13.26
2019-04-28T18:13:08.581Z,13.21
2019-04-28T18:15:57.498Z,13.26
2019-04-28T18:18:47.906Z,13.27
2019-04-28T18:21:20.405Z,13.09
2019-04-28T18:23:52.423Z,13.06
2019-04-28T18:26:24.721Z,13.03
2019-04-28T18:28:55.798Z,12.98
2019-04-28T18:31:40.479Z,12.98
2019-04-28T18:34:31.533Z,12.93
2019-04-28T18:37:19.241Z,12.87
2019-04-28T18:40:07.808Z,12.72
2019-04-28T18:42:44.244Z,12.54
2019-04-28T18:45:17.059Z,12.69
2019-04-28T18:47:48.521Z,12.68
2019-04-28T18:50:19.766Z,12.55
2019-04-28T18:52:51.308Z,12.49
2019-04-28T18:55:31.690Z,12.28
2019-04-28T18:58:06.321Z,12.38
2019-04-28T19:00:40.160Z,12.34
2019-04-28T19:03:12.309Z,12.50
2019-04-28T19:05:45.171Z,12.44
2019-04-28T19:08:48.145Z,12.33
2019-04-28T19:11:32.462Z,12.33
2019-04-28T19:14:12.707Z,12.27
2019-04-28T19:17:09.106Z,12.17
2019-04-28T19:19:41.054Z,12.12
2019-04-28T19:22:12.138Z,12.20
2019-04-28T19:24:43.229Z,12.10
2019-04-28T19:27:14.343Z,12.18
2019-04-28T19:29:45.586Z,12.06
2019-04-28T19:32:18.536Z,12.10
2019-04-28T19:34:50.262Z,12.17
2019-04-28T19:37:21.479Z,12.25
2019-04-28T19:39:52.727Z,11.83
2019-04-28T19:42:24.297Z,11.92
2019-04-28T19:44:56.106Z,11.85
2019-04-28T19:47:27.343Z,11.86
2019-04-28T19:50:00.354Z,11.73
2019-04-28T19:52:32.127Z,11.59
2019-04-28T19:55:15.495Z,11.91
2019-04-28T19:57:51.928Z,11.78
2019-04-28T20:00:26.878Z,11.69
2019-04-28T20:02:58.367Z,11.72
2019-04-28T20:05:29.685Z,11.62
2019-04-28T20:08:01.522Z,11.57
2019-04-28T20:10:32.819Z,11.40
2019-04-28T20:13:03.905Z,11.58
2019-04-28T20:15:34.928Z,11.60
2019-04-28T20:18:06.142Z,11.43
2019-04-28T20:20:38.058Z,11.29
2019-04-28T20:23:09.119Z,11.23
2019-04-28T20:25:40.586Z,11.42
2019-04-28T20:28:11.992Z,11.35
2019-04-28T20:30:43.129Z,11.28
2019-04-28T20:33:14.323Z,11.45
2019-04-28T20:35:53.843Z,11.22
2019-04-28T20:38:30.856Z,11.30
2019-04-28T20:41:18.065Z,11.31
2019-04-28T20:43:49.045Z,10.98
2019-04-28T20:46:20.347Z,11.31
2019-04-28T20:48:52.149Z,11.36
2019-04-28T20:51:23.214Z,11.30
2019-04-28T20:53:54.172Z,11.25
2019-04-28T20:56:25.868Z,11.17
2019-04-28T20:58:57.481Z,11.31
2019-04-28T21:01:28.574Z,11.15
2019-04-28T21:03:59.908Z,10.96
2019-04-28T21:06:31.187Z,10.97
2019-04-28T21:09:02.680Z,11.07
2019-04-28T21:11:35.332Z,10.92
2019-04-28T21:14:06.368Z,10.98
2019-04-28T21:16:37.393Z,10.99
2019-04-28T21:19:08.380Z,10.99
2019-04-28T21:21:39.332Z,10.82
2019-04-28T21:24:10.542Z,10.79
2019-04-28T21:26:42.932Z,10.90
2019-04-28T21:29:14.156Z,10.84
2019-04-28T21:31:45.189Z,10.84
2019-04-28T21:34:16.410Z,10.73
2019-04-28T21:36:47.519Z,10.63
2019-04-28T21:39:18.623Z,10.53
2019-04-28T21:41:50.300Z,10.60
2019-04-28T21:44:37.573Z,10.50
2019-04-28T21:47:27.898Z,10.55
2019-04-28T21:49:59.170Z,10.51
2019-04-28T21:52:30.199Z,10.40
2019-04-28T21:55:01.194Z,10.27
2019-04-28T21:57:32.670Z,10.50
2019-04-28T22:00:05.141Z,10.32
2019-04-28T22:02:35.431Z,10.37
2019-04-28T22:05:06.558Z,10.28
2019-04-28T22:07:37.912Z,10.17
2019-04-28T22:10:09.073Z,10.18
2019-04-28T22:12:40.046Z,10.29
2019-04-28T22:15:11.543Z,10.15
2019-04-28T22:17:42.583Z,10.27
2019-04-28T22:20:13.623Z,10.17
2019-04-28T22:22:44.667Z,10.02
2019-04-28T22:25:20.775Z,9.99
2019-04-28T22:27:51.718Z,10.15
2019-04-28T22:30:23.291Z,10.03
2019-04-28T22:32:54.673Z,10.00
2019-04-28T22:35:26.324Z,9.97
2019-04-28T22:37:57.308Z,9.93
2019-04-28T22:40:28.375Z,9.87
2019-04-28T22:42:59.678Z,9.90
2019-04-28T22:45:31.709Z,9.84
2019-04-28T22:48:03.469Z,9.72
2019-04-28T22:50:47.953Z,9.83
2019-04-28T22:53:21.274Z,9.85
2019-04-28T22:55:58.787Z,9.55
2019-04-28T22:58:39.954Z,9.64
2019-04-28T23:01:18.445Z,9.61
2019-04-28T23:04:01.929Z,9.75
2019-04-28T23:06:32.985Z,9.64
2019-04-28T23:09:04.187Z,9.73
2019-04-28T23:11:36.822Z,9.69
2019-04-28T23:14:07.803Z,9.77
2019-04-28T23:16:39.174Z,9.74
2019-04-28T23:19:12.431Z,9.68
2019-04-28T23:21:58.891Z,9.55
2019-04-28T23:24:30.327Z,9.55
2019-04-28T23:27:01.567Z,9.59
2019-04-28T23:29:33.152Z,9.66
2019-04-28T23:32:04.340Z,9.50
2019-04-28T23:34:36.251Z,9.60
2019-04-28T23:37:07.620Z,9.38
2019-04-28T23:39:38.673Z,9.34
2019-04-28T23:42:16.516Z,9.40
2019-04-28T23:44:47.553Z,9.57
2019-04-28T23:47:18.853Z,9.55
2019-04-28T23:49:49.904Z,9.55
2019-04-28T23:52:48.769Z,9.49
2019-04-28T23:55:22.931Z,9.38
2019-04-28T23:57:53.929Z,9.33
